createdAt,value
2023-06-19T00:00:11.406Z,2214.00
2023-06-19T00:01:11.480Z,2179.00
2023-06-19T00:02:11.592Z,2198.00
2023-06-19T00:03:11.674Z,2230.00
2023-06-19T00:04:11.637Z,2229.00
2023-06-19T00:05:11.628Z,2193.00
2023-06-19T00:06:11.712Z,2149.00
2023-06-19T00:07:11.758Z,2159.00
2023-06-19T00:08:11.829Z,2258.00
2023-06-19T00:09:11.815Z,2238.00
2023-06-19T00:10:11.957Z,2315.00
2023-06-19T00:11:11.965Z,2250.00
2023-06-19T00:12:11.995Z,2297.00
2023-06-19T00:13:12.114Z,2237.00
2023-06-19T00:14:12.081Z,2210.00
2023-06-19T00:15:12.133Z,2234.00
2023-06-19T00:16:12.264Z,2241.00
2023-06-19T00:17:12.230Z,2237.00
2023-06-19T00:18:12.298Z,2221.00
2023-06-19T00:19:12.364Z,2098.00
2023-06-19T00:20:12.361Z,2128.00
2023-06-19T00:21:12.449Z,2174.00
2023-06-19T00:22:12.527Z,2149.00
2023-06-19T00:23:12.606Z,2162.00
2023-06-19T00:24:12.591Z,2182.00
2023-06-19T00:25:12.653Z,2182.00
2023-06-19T00:26:12.694Z,2182.00
2023-06-19T00:27:12.760Z,2167.00
2023-06-19T00:28:12.800Z,2181.00
2023-06-19T00:29:12.844Z,2165.00
2023-06-19T00:30:12.932Z,2172.00
2023-06-19T00:31:12.946Z,2192.00
2023-06-19T00:32:13.021Z,2171.00
2023-06-19T00:33:13.051Z,2125.00
2023-06-19T00:34:13.108Z,2199.00
2023-06-19T00:35:13.158Z,2182.00
2023-06-19T00:36:13.229Z,2216.00
2023-06-19T00:37:13.281Z,2249.00
2023-06-19T00:38:13.360Z,2262.00
2023-06-19T00:39:13.417Z,2235.00
2023-06-19T00:40:13.464Z,2235.00
2023-06-19T00:41:13.489Z,2239.00
2023-06-19T00:42:13.496Z,2239.00
2023-06-19T00:43:13.654Z,2193.00
2023-06-19T00:44:13.707Z,2207.00
2023-06-19T00:45:13.719Z,2247.00
2023-06-19T00:46:13.777Z,2217.00
2023-06-19T00:47:13.811Z,2205.00
2023-06-19T00:48:13.866Z,2177.00
2023-06-19T00:49:13.933Z,2191.00
2023-06-19T00:50:13.985Z,2225.00
2023-06-19T00:51:14.050Z,2227.00
2023-06-19T00:52:14.168Z,2186.00
2023-06-19T00:53:14.676Z,2180.00
2023-06-19T00:54:14.194Z,2170.00
2023-06-19T00:55:14.281Z,2178.00
2023-06-19T00:56:14.310Z,2195.00
2023-06-19T00:57:14.395Z,2229.00
2023-06-19T00:58:14.455Z,2198.00
2023-06-19T00:59:14.511Z,2183.00
2023-06-19T01:00:14.657Z,2163.00
2023-06-19T01:01:14.606Z,2150.00
2023-06-19T01:02:14.754Z,2129.00
2023-06-19T01:03:17.667Z,2097.00
2023-06-19T01:04:14.829Z,2098.00
2023-06-19T01:05:14.824Z,2098.00
2023-06-19T01:06:14.689Z,2080.00
2023-06-19T01:07:14.758Z,2078.00
2023-06-19T01:08:14.708Z,2079.00
2023-06-19T01:09:14.733Z,2100.00
2023-06-19T01:10:14.717Z,2122.00
2023-06-19T01:11:25.408Z,2098.00
2023-06-19T01:12:15.882Z,2098.00
2023-06-19T01:13:14.712Z,2067.00
2023-06-19T01:14:14.686Z,2041.00
2023-06-19T01:15:14.683Z,2070.00
2023-06-19T01:16:14.656Z,2020.00
2023-06-19T01:17:14.681Z,1988.00
2023-06-19T01:18:14.643Z,2007.00
2023-06-19T01:19:14.660Z,2025.00
2023-06-19T01:20:14.659Z,2018.00
2023-06-19T01:21:14.710Z,2015.00
2023-06-19T01:22:14.778Z,2047.00
2023-06-19T01:23:14.811Z,2055.00
2023-06-19T01:24:14.959Z,2040.00
2023-06-19T01:25:14.984Z,2067.00
2023-06-19T01:26:15.001Z,2109.00
2023-06-19T01:27:15.059Z,2121.00
2023-06-19T01:28:15.128Z,2061.00
2023-06-19T01:29:15.227Z,2023.00
2023-06-19T01:30:15.248Z,1996.00
2023-06-19T01:31:15.333Z,2032.00
2023-06-19T01:32:15.354Z,2029.00
2023-06-19T01:33:15.400Z,2063.00
2023-06-19T01:34:15.481Z,2106.00
2023-06-19T01:35:15.538Z,2126.00
2023-06-19T01:36:15.586Z,2121.00
2023-06-19T01:37:15.678Z,2087.00
2023-06-19T01:38:15.713Z,2096.00
2023-06-19T01:39:15.824Z,2082.00
2023-06-19T01:40:15.814Z,2072.00
2023-06-19T01:41:15.850Z,2076.00
2023-06-19T01:42:15.946Z,2065.00
2023-06-19T01:43:15.939Z,2014.00
2023-06-19T01:44:16.018Z,2072.00
2023-06-19T01:45:16.061Z,2060.00
2023-06-19T01:46:16.146Z,1984.00
2023-06-19T01:47:16.179Z,2016.00
2023-06-19T01:48:16.218Z,2006.00
2023-06-19T01:49:16.253Z,1961.00
2023-06-19T01:50:16.260Z,1923.00
2023-06-19T01:51:16.344Z,1918.00
2023-06-19T01:52:16.355Z,1910.00
2023-06-19T01:53:16.426Z,1895.00
2023-06-19T01:54:16.598Z,1900.00
2023-06-19T01:55:16.549Z,1875.00
2023-06-19T01:56:16.539Z,1866.00
2023-06-19T01:57:16.583Z,1854.00
2023-06-19T01:58:16.665Z,1896.00
2023-06-19T01:59:16.684Z,1934.00
2023-06-19T02:00:16.748Z,1944.00
2023-06-19T02:01:16.801Z,1922.00
2023-06-19T02:02:16.833Z,1922.00
2023-06-19T02:03:17.067Z,1937.00
2023-06-19T02:04:16.968Z,1968.00
2023-06-19T02:05:16.991Z,1966.00
2023-06-19T02:06:17.034Z,1950.00
2023-06-19T02:07:17.168Z,1909.00
2023-06-19T02:08:17.101Z,1862.00
2023-06-19T02:09:17.153Z,1842.00
2023-06-19T02:10:17.165Z,1828.00
2023-06-19T02:11:17.177Z,1833.00
2023-06-19T02:12:17.213Z,1819.00
2023-06-19T02:13:17.173Z,1826.00
2023-06-19T02:14:17.208Z,1843.00
2023-06-19T02:15:17.233Z,1847.00
2023-06-19T02:16:17.314Z,1879.00
2023-06-19T02:17:17.271Z,1852.00
2023-06-19T02:18:17.309Z,1859.00
2023-06-19T02:19:17.260Z,1860.00
2023-06-19T02:20:17.296Z,1867.00
2023-06-19T02:21:17.259Z,1902.00
2023-06-19T02:22:17.250Z,1913.00
2023-06-19T02:23:17.247Z,1964.00
2023-06-19T02:24:17.307Z,1954.00
2023-06-19T02:25:17.258Z,1964.00
2023-06-19T02:26:17.213Z,1907.00
2023-06-19T02:27:17.235Z,1924.00
2023-06-19T02:28:17.220Z,1917.00
2023-06-19T02:29:17.214Z,1914.00
2023-06-19T02:30:17.235Z,1875.00
2023-06-19T02:31:17.289Z,1887.00
2023-06-19T02:32:17.227Z,1905.00
2023-06-19T02:33:17.213Z,1877.00
2023-06-19T02:34:17.176Z,1907.00
2023-06-19T02:35:17.229Z,1889.00
2023-06-19T02:36:17.294Z,1869.00
2023-06-19T02:37:17.185Z,1901.00
2023-06-19T02:38:17.177Z,1918.00
2023-06-19T02:39:17.181Z,1906.00
2023-06-19T02:40:17.181Z,1890.00
2023-06-19T02:41:17.168Z,1886.00
2023-06-19T02:42:17.176Z,1902.00
2023-06-19T02:43:17.173Z,1948.00
2023-06-19T02:44:17.148Z,1949.00
2023-06-19T02:45:17.160Z,1959.00
2023-06-19T02:46:17.227Z,2008.00
2023-06-19T02:47:17.161Z,1952.00
2023-06-19T02:48:17.146Z,1975.00
2023-06-19T02:49:17.154Z,1907.00
2023-06-19T02:50:17.106Z,1986.00
2023-06-19T02:51:17.126Z,1981.00
2023-06-19T02:52:17.206Z,2005.00
2023-06-19T02:53:17.133Z,2020.00
2023-06-19T02:54:17.146Z,2041.00
2023-06-19T02:55:17.148Z,2053.00
2023-06-19T02:56:17.140Z,2092.00
2023-06-19T02:57:17.114Z,2079.00
2023-06-19T02:58:17.114Z,2107.00
2023-06-19T02:59:17.131Z,2071.00
2023-06-19T03:00:17.135Z,2085.00
2023-06-19T03:01:17.248Z,2112.00
2023-06-19T03:02:17.178Z,2150.00
2023-06-19T03:03:17.258Z,2187.00
2023-06-19T03:04:17.110Z,2224.00
2023-06-19T03:05:17.157Z,2230.00
2023-06-19T03:06:17.168Z,2243.00
2023-06-19T03:07:17.139Z,2210.00
2023-06-19T03:08:17.241Z,2192.00
2023-06-19T03:09:17.149Z,2158.00
2023-06-19T03:10:17.206Z,2140.00
2023-06-19T03:11:17.134Z,2139.00
2023-06-19T03:12:17.166Z,2080.00
2023-06-19T03:13:17.169Z,2121.00
2023-06-19T03:14:17.143Z,2153.00
2023-06-19T03:15:17.134Z,2136.00
2023-06-19T03:16:17.207Z,2160.00
2023-06-19T03:17:17.165Z,2181.00
2023-06-19T03:18:17.150Z,2158.00
2023-06-19T03:19:17.161Z,2212.00
2023-06-19T03:20:17.127Z,2208.00
2023-06-19T03:21:17.141Z,2183.00
2023-06-19T03:22:17.121Z,2227.00
2023-06-19T03:23:17.133Z,2229.00
2023-06-19T03:24:17.221Z,2200.00
2023-06-19T03:25:17.188Z,2220.00
2023-06-19T03:26:17.130Z,2204.00
2023-06-19T03:27:17.135Z,2145.00
2023-06-19T03:28:17.127Z,2166.00
2023-06-19T03:29:17.140Z,2155.00
2023-06-19T03:30:17.128Z,2194.00
2023-06-19T03:31:17.154Z,2213.00
2023-06-19T03:32:17.149Z,2174.00
2023-06-19T03:33:17.169Z,2173.00
2023-06-19T03:34:17.175Z,2208.00
2023-06-19T03:35:17.166Z,2206.00
2023-06-19T03:36:17.183Z,2199.00
2023-06-19T03:37:17.201Z,2169.00
2023-06-19T03:38:17.191Z,2124.00
2023-06-19T03:39:17.193Z,2212.00
2023-06-19T03:40:17.199Z,2165.00
2023-06-19T03:41:17.220Z,2169.00
2023-06-19T03:42:17.193Z,2185.00
2023-06-19T03:43:17.233Z,2162.00
2023-06-19T03:44:17.291Z,2141.00
2023-06-19T03:45:17.237Z,2123.00
2023-06-19T03:46:17.278Z,2154.00
2023-06-19T03:47:17.256Z,2137.00
2023-06-19T03:48:17.268Z,2180.00
2023-06-19T03:49:17.339Z,2203.00
2023-06-19T03:50:21.471Z,2165.00
2023-06-19T03:51:17.318Z,2168.00
2023-06-19T03:52:17.260Z,2177.00
2023-06-19T03:53:17.319Z,2214.00
2023-06-19T03:54:17.279Z,2270.00
2023-06-19T03:55:17.271Z,2316.00
2023-06-19T03:56:17.261Z,2319.00
2023-06-19T03:57:17.270Z,2345.00
2023-06-19T03:58:17.234Z,2297.00
2023-06-19T03:59:17.233Z,2279.00
2023-06-19T04:00:17.238Z,2268.00
2023-06-19T04:01:17.292Z,2313.00
2023-06-19T04:02:17.257Z,2325.00
2023-06-19T04:03:17.271Z,2322.00
2023-06-19T04:04:17.318Z,2289.00
2023-06-19T04:05:17.198Z,2310.00
2023-06-19T04:06:17.234Z,2319.00
2023-06-19T04:07:17.196Z,2340.00
2023-06-19T04:08:17.195Z,2338.00
2023-06-19T04:09:17.193Z,2355.00
2023-06-19T04:10:17.215Z,2306.00
2023-06-19T04:11:17.192Z,2279.00
2023-06-19T04:12:17.170Z,2293.00
2023-06-19T04:13:17.187Z,2309.00
2023-06-19T04:14:17.181Z,2326.00
2023-06-19T04:15:17.123Z,2347.00
2023-06-19T04:16:17.168Z,2299.00
2023-06-19T04:17:17.143Z,2316.00
2023-06-19T04:18:17.136Z,2344.00
2023-06-19T04:19:17.098Z,2310.00
2023-06-19T04:20:17.150Z,2332.00
2023-06-19T04:21:17.121Z,2282.00
2023-06-19T04:22:17.064Z,2308.00
2023-06-19T04:23:17.067Z,2314.00
2023-06-19T04:24:17.152Z,2332.00
2023-06-19T04:25:17.096Z,2361.00
2023-06-19T04:26:17.073Z,2351.00
2023-06-19T04:27:17.078Z,2369.00
2023-06-19T04:28:17.084Z,2340.00
2023-06-19T04:29:17.051Z,2357.00
2023-06-19T04:30:17.056Z,2387.00
2023-06-19T04:31:17.040Z,2415.00
2023-06-19T04:32:17.074Z,2443.00
2023-06-19T04:33:17.193Z,2474.00
2023-06-19T04:34:17.005Z,2478.00
2023-06-19T04:35:17.008Z,2530.00
2023-06-19T04:36:17.040Z,2572.00
2023-06-19T04:37:16.959Z,2576.00
2023-06-19T04:38:17.000Z,2593.00
2023-06-19T04:39:16.959Z,2596.00
2023-06-19T04:40:16.972Z,2622.00
2023-06-19T04:41:16.955Z,2649.00
2023-06-19T04:42:16.964Z,2671.00
2023-06-19T04:43:16.981Z,2727.00
2023-06-19T04:44:16.969Z,2761.00
2023-06-19T04:45:16.996Z,2809.00
2023-06-19T04:46:17.057Z,2856.00
2023-06-19T04:47:17.048Z,2905.00
2023-06-19T04:48:17.111Z,2915.00
2023-06-19T04:49:17.042Z,2937.00
2023-06-19T04:50:17.078Z,2950.00
2023-06-19T04:51:17.093Z,2964.00
2023-06-19T04:52:17.083Z,2965.00
2023-06-19T04:53:17.157Z,2993.00
2023-06-19T04:54:17.162Z,3018.00
2023-06-19T04:55:17.258Z,3055.00
2023-06-19T04:56:17.197Z,3075.00
2023-06-19T04:57:17.212Z,3082.00
2023-06-19T04:58:17.206Z,3087.00
2023-06-19T04:59:17.252Z,3080.00
2023-06-19T05:00:17.286Z,3062.00
2023-06-19T05:01:17.365Z,3057.00
2023-06-19T05:02:17.349Z,3053.00
2023-06-19T05:03:17.357Z,3041.00
2023-06-19T05:04:17.375Z,3033.00
2023-06-19T05:05:17.398Z,3037.00
2023-06-19T05:06:17.441Z,3048.00
2023-06-19T05:07:17.454Z,3041.00
2023-06-19T05:08:17.474Z,3051.00
2023-06-19T05:09:17.490Z,3067.00
2023-06-19T05:10:17.559Z,3068.00
2023-06-19T05:11:17.585Z,3058.00
2023-06-19T05:12:17.583Z,3057.00
2023-06-19T05:13:17.616Z,3039.00
2023-06-19T05:14:17.655Z,3048.00
2023-06-19T05:15:17.747Z,3053.00
2023-06-19T05:16:17.821Z,3040.00
2023-06-19T05:17:17.779Z,3068.00
2023-06-19T05:18:17.810Z,3068.00
2023-06-19T05:19:17.841Z,3081.00
2023-06-19T05:20:17.855Z,3097.00
2023-06-19T05:21:17.846Z,3103.00
2023-06-19T05:22:17.860Z,3103.00
2023-06-19T05:23:17.879Z,3126.00
2023-06-19T05:24:17.940Z,3121.00
2023-06-19T05:25:17.918Z,3130.00
2023-06-19T05:26:17.949Z,3121.00
2023-06-19T05:27:17.998Z,3112.00
2023-06-19T05:28:18.011Z,3125.00
2023-06-19T05:29:18.036Z,3123.00
2023-06-19T05:30:18.154Z,3146.00
2023-06-19T05:31:18.118Z,3154.00
2023-06-19T05:32:18.090Z,3146.00
2023-06-19T05:33:18.190Z,3146.00
2023-06-19T05:34:18.173Z,3138.00
2023-06-19T05:35:18.216Z,3127.00
2023-06-19T05:36:18.276Z,3133.00
2023-06-19T05:37:18.294Z,3115.00
2023-06-19T05:38:18.310Z,3109.00
2023-06-19T05:39:18.354Z,3118.00
2023-06-19T05:40:18.393Z,3105.00
2023-06-19T05:41:18.424Z,3097.00
2023-06-19T05:42:18.462Z,3065.00
2023-06-19T05:43:18.474Z,3051.00
2023-06-19T05:44:18.528Z,3054.00
2023-06-19T05:45:18.567Z,3024.00
2023-06-19T05:46:18.772Z,3012.00
2023-06-19T05:47:18.649Z,2988.00
2023-06-19T05:48:18.690Z,2990.00
2023-06-19T05:49:18.693Z,2976.00
2023-06-19T05:50:18.766Z,2955.00
2023-06-19T05:51:18.781Z,2974.00
2023-06-19T05:52:18.807Z,2987.00
2023-06-19T05:53:19.337Z,2995.00
2023-06-19T05:54:18.931Z,3008.00
2023-06-19T05:55:18.942Z,3011.00
2023-06-19T05:56:18.946Z,3035.00
2023-06-19T05:57:18.959Z,3027.00
2023-06-19T05:58:19.010Z,3039.00
2023-06-19T05:59:19.024Z,3048.00
2023-06-19T06:00:19.073Z,3056.00
2023-06-19T06:01:19.168Z,3069.00
2023-06-19T06:02:19.157Z,3073.00
2023-06-19T06:03:19.215Z,3099.00
2023-06-19T06:04:19.221Z,3082.00
2023-06-19T06:05:19.201Z,3102.00
2023-06-19T06:06:19.203Z,3121.00
2023-06-19T06:07:20.352Z,3128.00
2023-06-19T06:08:19.288Z,3137.00
2023-06-19T06:09:19.299Z,3148.00
2023-06-19T06:10:19.300Z,3174.00
2023-06-19T06:11:19.384Z,3174.00
2023-06-19T06:12:19.362Z,3194.00
2023-06-19T06:13:19.392Z,3202.00
2023-06-19T06:14:19.409Z,3207.00
2023-06-19T06:15:19.826Z,3215.00
2023-06-19T06:16:19.559Z,3218.00
2023-06-19T06:17:19.505Z,3220.00
2023-06-19T06:18:19.515Z,3228.00
2023-06-19T06:19:19.568Z,3228.00
2023-06-19T06:20:19.539Z,3231.00
2023-06-19T06:21:19.684Z,3235.00
2023-06-19T06:22:19.617Z,3232.00
2023-06-19T06:23:19.600Z,3223.00
2023-06-19T06:24:19.783Z,3230.00
2023-06-19T06:25:19.680Z,3230.00
2023-06-19T06:26:19.712Z,3230.00
2023-06-19T06:27:19.723Z,3218.00
2023-06-19T06:28:19.799Z,3221.00
2023-06-19T06:29:19.776Z,3220.00
2023-06-19T06:30:20.612Z,3205.00
2023-06-19T06:31:19.828Z,3215.00
2023-06-19T06:32:19.894Z,3222.00
2023-06-19T06:33:19.882Z,3208.00
2023-06-19T06:34:19.914Z,3206.00
2023-06-19T06:35:19.949Z,3220.00
2023-06-19T06:36:35.049Z,3202.00
2023-06-19T06:37:20.967Z,3203.00
2023-06-19T06:38:19.935Z,3205.00
2023-06-19T06:39:20.056Z,3210.00
2023-06-19T06:40:19.956Z,3203.00
2023-06-19T06:41:19.912Z,3215.00
2023-06-19T06:42:19.925Z,3173.00
2023-06-19T06:43:19.944Z,3162.00
2023-06-19T06:44:19.907Z,3148.00
2023-06-19T06:45:19.891Z,3165.00
2023-06-19T06:46:20.012Z,3160.00
2023-06-19T06:47:19.903Z,3146.00
2023-06-19T06:48:19.863Z,3148.00
2023-06-19T06:49:19.886Z,3146.00
2023-06-19T06:50:19.843Z,3133.00
2023-06-19T06:51:19.926Z,3134.00
2023-06-19T06:52:19.839Z,3123.00
2023-06-19T06:53:19.861Z,3133.00
2023-06-19T06:54:19.987Z,3128.00
2023-06-19T06:55:19.875Z,3129.00
2023-06-19T06:56:19.917Z,3127.00
2023-06-19T06:57:19.970Z,3130.00
2023-06-19T06:58:20.026Z,3131.00
2023-06-19T06:59:20.056Z,3110.00
2023-06-19T07:00:19.992Z,3121.00
2023-06-19T07:01:20.216Z,3121.00
2023-06-19T07:02:20.177Z,3110.00
2023-06-19T07:03:20.268Z,3107.00
2023-06-19T07:04:20.117Z,3095.00
2023-06-19T07:05:20.131Z,3110.00
2023-06-19T07:06:20.158Z,3110.00
2023-06-19T07:07:20.205Z,3108.00
2023-06-19T07:08:20.277Z,3109.00
2023-06-19T07:09:20.213Z,3106.00
2023-06-19T07:10:20.278Z,3120.00
2023-06-19T07:11:20.288Z,3122.00
2023-06-19T07:12:20.278Z,3104.00
2023-06-19T07:13:20.275Z,3116.00
2023-06-19T07:14:20.355Z,3097.00
2023-06-19T07:15:20.317Z,3109.00
2023-06-19T07:16:20.415Z,3112.00
2023-06-19T07:17:21.432Z,3112.00
2023-06-19T07:18:20.386Z,3123.00
2023-06-19T07:19:20.457Z,3108.00
2023-06-19T07:20:20.397Z,3112.00
2023-06-19T07:21:20.444Z,3127.00
2023-06-19T07:22:20.480Z,3120.00
2023-06-19T07:23:20.537Z,3115.00
2023-06-19T07:24:20.549Z,3111.00
2023-06-19T07:25:20.500Z,3110.00
2023-06-19T07:26:20.513Z,3110.00
2023-06-19T07:27:20.556Z,3107.00
2023-06-19T07:28:20.526Z,3104.00
2023-06-19T07:29:20.574Z,3114.00
2023-06-19T07:30:20.529Z,3089.00
2023-06-19T07:31:20.588Z,3075.00
2023-06-19T07:32:20.586Z,3082.00
2023-06-19T07:33:20.564Z,3069.00
2023-06-19T07:34:20.596Z,3061.00
2023-06-19T07:35:20.614Z,3041.00
2023-06-19T07:36:20.575Z,3045.00
2023-06-19T07:37:20.589Z,3052.00
2023-06-19T07:38:20.600Z,3053.00
2023-06-19T07:39:20.634Z,3037.00
2023-06-19T07:40:20.600Z,3041.00
2023-06-19T07:41:20.638Z,3014.00
2023-06-19T07:42:20.710Z,2998.00
2023-06-19T07:43:20.617Z,3026.00
2023-06-19T07:44:20.670Z,2999.00
2023-06-19T07:45:20.662Z,2964.00
2023-06-19T07:46:20.668Z,2968.00
2023-06-19T07:47:20.771Z,2944.00
2023-06-19T07:48:20.642Z,2941.00
2023-06-19T07:49:20.781Z,2959.00
2023-06-19T07:50:20.649Z,2955.00
2023-06-19T07:51:20.685Z,2959.00
2023-06-19T07:52:20.635Z,2902.00
2023-06-19T07:53:20.634Z,2924.00
2023-06-19T07:54:20.618Z,2903.00
2023-06-19T07:55:20.666Z,2879.00
2023-06-19T07:56:20.668Z,2877.00
2023-06-19T07:57:20.662Z,2878.00
2023-06-19T07:58:20.710Z,2882.00
2023-06-19T07:59:20.651Z,2858.00
2023-06-19T08:00:20.659Z,2839.00
2023-06-19T08:01:20.629Z,2835.00
2023-06-19T08:02:20.653Z,2802.00
2023-06-19T08:03:20.729Z,2768.00
2023-06-19T08:04:21.307Z,2761.00
2023-06-19T08:05:20.721Z,2770.00
2023-06-19T08:06:20.645Z,2787.00
2023-06-19T08:07:20.661Z,2783.00
2023-06-19T08:08:20.641Z,2807.00
2023-06-19T08:09:20.675Z,2761.00
2023-06-19T08:10:20.685Z,2703.00
2023-06-19T08:11:20.697Z,2654.00
2023-06-19T08:12:20.659Z,2600.00
2023-06-19T08:13:20.869Z,2611.00
2023-06-19T08:14:20.654Z,2611.00
2023-06-19T08:15:20.676Z,2568.00
2023-06-19T08:16:20.669Z,2573.00
2023-06-19T08:17:20.737Z,2558.00
2023-06-19T08:18:20.682Z,2576.00
2023-06-19T08:19:20.699Z,2556.00
2023-06-19T08:20:20.667Z,2560.00
2023-06-19T08:21:20.704Z,2584.00
2023-06-19T08:22:20.655Z,2594.00
2023-06-19T08:23:20.721Z,2613.00
2023-06-19T08:24:20.709Z,2615.00
2023-06-19T08:25:20.705Z,2633.00
2023-06-19T08:26:20.715Z,2646.00
2023-06-19T08:27:20.681Z,2640.00
2023-06-19T08:28:20.704Z,2667.00
2023-06-19T08:29:20.735Z,2662.00
2023-06-19T08:30:20.717Z,2630.00
2023-06-19T08:31:20.707Z,2652.00
2023-06-19T08:32:20.731Z,2651.00
2023-06-19T08:33:20.747Z,2632.00
2023-06-19T08:34:20.752Z,2645.00
2023-06-19T08:35:20.731Z,2644.00
2023-06-19T08:36:20.764Z,2640.00
2023-06-19T08:37:20.776Z,2659.00
2023-06-19T08:38:20.758Z,2652.00
2023-06-19T08:39:20.777Z,2677.00
2023-06-19T08:40:20.781Z,2683.00
2023-06-19T08:41:20.807Z,2673.00
2023-06-19T08:42:20.892Z,2675.00
2023-06-19T08:43:20.856Z,2667.00
2023-06-19T08:44:20.800Z,2669.00
2023-06-19T08:45:20.859Z,2675.00
2023-06-19T08:46:20.878Z,2684.00
2023-06-19T08:47:20.977Z,2691.00
2023-06-19T08:48:20.917Z,2709.00
2023-06-19T08:49:20.869Z,2692.00
2023-06-19T08:50:20.869Z,2673.00
2023-06-19T08:51:20.907Z,2712.00
2023-06-19T08:52:20.918Z,2703.00
2023-06-19T08:53:22.246Z,2685.00
2023-06-19T08:54:20.925Z,2672.00
2023-06-19T08:55:20.970Z,2687.00
2023-06-19T08:56:20.932Z,2680.00
2023-06-19T08:57:21.016Z,2691.00
2023-06-19T08:58:20.950Z,2700.00
2023-06-19T08:59:20.958Z,2691.00
2023-06-19T09:00:23.057Z,2674.00
2023-06-19T09:01:21.185Z,2693.00
2023-06-19T09:02:21.077Z,2696.00
2023-06-19T09:03:21.035Z,2683.00
2023-06-19T09:04:21.076Z,2697.00
2023-06-19T09:05:20.952Z,2703.00
2023-06-19T09:06:21.030Z,2696.00
2023-06-19T09:07:21.091Z,2705.00
2023-06-19T09:08:20.963Z,2666.00
2023-06-19T09:09:20.957Z,2668.00
2023-06-19T09:10:21.030Z,2678.00
2023-06-19T09:11:20.903Z,2694.00
2023-06-19T09:12:20.923Z,2691.00
2023-06-19T09:13:20.888Z,2675.00
2023-06-19T09:14:20.913Z,2678.00
2023-06-19T09:15:20.939Z,2685.00
2023-06-19T09:16:20.908Z,2680.00
2023-06-19T09:17:21.102Z,2648.00
2023-06-19T09:18:20.898Z,2647.00
2023-06-19T09:19:20.866Z,2666.00
2023-06-19T09:20:20.880Z,2660.00
2023-06-19T09:21:20.876Z,2643.00
2023-06-19T09:22:20.892Z,2646.00
2023-06-19T09:23:20.812Z,2615.00
2023-06-19T09:24:20.892Z,2625.00
2023-06-19T09:25:20.894Z,2620.00
2023-06-19T09:26:20.880Z,2617.00
2023-06-19T09:27:20.828Z,2623.00
2023-06-19T09:28:20.830Z,2606.00
2023-06-19T09:29:21.727Z,2609.00
2023-06-19T09:30:20.864Z,2605.00
2023-06-19T09:31:20.831Z,2617.00
2023-06-19T09:32:20.830Z,2625.00
2023-06-19T09:33:20.825Z,2610.00
2023-06-19T09:34:20.795Z,2596.00
2023-06-19T09:35:20.774Z,2593.00
2023-06-19T09:36:20.781Z,2577.00
2023-06-19T09:37:20.749Z,2579.00
2023-06-19T09:38:20.768Z,2582.00
2023-06-19T09:39:20.760Z,2579.00
2023-06-19T09:40:21.076Z,2586.00
2023-06-19T09:41:20.696Z,2580.00
2023-06-19T09:42:20.712Z,2565.00
2023-06-19T09:43:20.805Z,2581.00
2023-06-19T09:44:20.685Z,2578.00
2023-06-19T09:45:20.778Z,2556.00
2023-06-19T09:46:20.661Z,2549.00
2023-06-19T09:47:20.666Z,2559.00
2023-06-19T09:48:20.677Z,2553.00
2023-06-19T09:49:20.687Z,2542.00
2023-06-19T09:50:20.719Z,2539.00
2023-06-19T09:51:20.635Z,2552.00
2023-06-19T09:52:20.643Z,2535.00
2023-06-19T09:53:20.638Z,2532.00
2023-06-19T09:54:20.648Z,2523.00
2023-06-19T09:55:20.677Z,2513.00
2023-06-19T09:56:20.606Z,2516.00
2023-06-19T09:57:20.589Z,2523.00
2023-06-19T09:58:20.633Z,2536.00
2023-06-19T09:59:20.602Z,2520.00
2023-06-19T10:00:20.649Z,2504.00
2023-06-19T10:01:20.591Z,2484.00
2023-06-19T10:02:20.685Z,2487.00
2023-06-19T10:03:20.683Z,2485.00
2023-06-19T10:04:20.568Z,2480.00
2023-06-19T10:05:20.549Z,2490.00
2023-06-19T10:06:20.526Z,2478.00
2023-06-19T10:07:20.535Z,2471.00
2023-06-19T10:08:20.589Z,2473.00
2023-06-19T10:09:20.601Z,2449.00
2023-06-19T10:10:20.648Z,2425.00
2023-06-19T10:11:20.509Z,2435.00
2023-06-19T10:12:20.501Z,2446.00
2023-06-19T10:13:20.497Z,2443.00
2023-06-19T10:14:20.487Z,2427.00
2023-06-19T10:15:20.493Z,2422.00
2023-06-19T10:16:20.559Z,2426.00
2023-06-19T10:17:20.485Z,2418.00
2023-06-19T10:18:20.452Z,2402.00
2023-06-19T10:19:20.498Z,2399.00
2023-06-19T10:20:20.443Z,2401.00
2023-06-19T10:21:20.447Z,2391.00
2023-06-19T10:22:20.516Z,2380.00
2023-06-19T10:23:20.950Z,2373.00
2023-06-19T10:24:20.532Z,2356.00
2023-06-19T10:25:20.430Z,2373.00
2023-06-19T10:26:20.403Z,2380.00
2023-06-19T10:27:20.435Z,2363.00
2023-06-19T10:28:20.386Z,2349.00
2023-06-19T10:29:20.386Z,2362.00
2023-06-19T10:30:20.683Z,2362.00
2023-06-19T10:31:20.365Z,2347.00
2023-06-19T10:32:20.392Z,2332.00
2023-06-19T10:33:20.356Z,2334.00
2023-06-19T10:34:20.356Z,2347.00
2023-06-19T10:35:20.392Z,2334.00
2023-06-19T10:36:20.505Z,2334.00
2023-06-19T10:37:20.352Z,2353.00
2023-06-19T10:38:20.356Z,2332.00
2023-06-19T10:39:20.370Z,2335.00
2023-06-19T10:40:20.395Z,2326.00
2023-06-19T10:41:20.435Z,2321.00
2023-06-19T10:42:20.427Z,2324.00
2023-06-19T10:43:20.419Z,2336.00
2023-06-19T10:44:20.450Z,2322.00
2023-06-19T10:45:20.461Z,2308.00
2023-06-19T10:46:20.680Z,2291.00
2023-06-19T10:47:20.512Z,2306.00
2023-06-19T10:48:20.504Z,2309.00
2023-06-19T10:49:20.528Z,2297.00
2023-06-19T10:50:20.534Z,2290.00
2023-06-19T10:51:20.550Z,2283.00
2023-06-19T10:52:20.581Z,2301.00
2023-06-19T10:53:20.655Z,2287.00
2023-06-19T10:54:20.570Z,2280.00
2023-06-19T10:55:20.663Z,2287.00
2023-06-19T10:56:20.606Z,2244.00
2023-06-19T10:57:20.635Z,2267.00
2023-06-19T10:58:20.618Z,2277.00
2023-06-19T10:59:20.663Z,2275.00
2023-06-19T11:00:20.761Z,2265.00
2023-06-19T11:01:20.685Z,2256.00
2023-06-19T11:02:20.787Z,2253.00
2023-06-19T11:03:20.803Z,2245.00
2023-06-19T11:04:20.731Z,2237.00
2023-06-19T11:05:20.739Z,2234.00
2023-06-19T11:06:20.743Z,2226.00
2023-06-19T11:07:20.783Z,2210.00
2023-06-19T11:08:20.828Z,2212.00
2023-06-19T11:09:20.824Z,2185.00
2023-06-19T11:10:20.951Z,2218.00
2023-06-19T11:11:20.841Z,2221.00
2023-06-19T11:12:20.897Z,2227.00
2023-06-19T11:13:20.905Z,2213.00
2023-06-19T11:14:20.908Z,2216.00
2023-06-19T11:15:20.918Z,2220.00
2023-06-19T11:16:20.937Z,2206.00
2023-06-19T11:17:21.015Z,2254.00
2023-06-19T11:18:21.004Z,2227.00
2023-06-19T11:19:21.030Z,2218.00
2023-06-19T11:20:21.032Z,2212.00
2023-06-19T11:21:20.978Z,2222.00
2023-06-19T11:22:21.067Z,2199.00
2023-06-19T11:23:21.038Z,2200.00
2023-06-19T11:24:21.118Z,2204.00
2023-06-19T11:25:21.068Z,2193.00
2023-06-19T11:26:21.066Z,2186.00
2023-06-19T11:27:21.091Z,2191.00
2023-06-19T11:28:21.109Z,2186.00
2023-06-19T11:29:21.125Z,2214.00
2023-06-19T11:30:21.259Z,2212.00
2023-06-19T11:31:21.218Z,2243.00
2023-06-19T11:32:21.207Z,2216.00
2023-06-19T11:33:21.209Z,2202.00
2023-06-19T11:34:24.476Z,2208.00
2023-06-19T11:35:21.205Z,2219.00
2023-06-19T11:36:21.188Z,2236.00
2023-06-19T11:37:21.225Z,2236.00
2023-06-19T11:38:21.191Z,2238.00
2023-06-19T11:39:21.222Z,2197.00
2023-06-19T11:40:21.218Z,2210.00
2023-06-19T11:41:21.145Z,2199.00
2023-06-19T11:42:21.149Z,2191.00
2023-06-19T11:43:21.169Z,2183.00
2023-06-19T11:44:21.180Z,2192.00
2023-06-19T11:45:21.246Z,2201.00
2023-06-19T11:46:21.193Z,2189.00
2023-06-19T11:47:21.149Z,2209.00
2023-06-19T11:48:21.090Z,2210.00
2023-06-19T11:49:21.109Z,2210.00
2023-06-19T11:50:21.867Z,2212.00
2023-06-19T11:51:21.090Z,2222.00
2023-06-19T11:52:21.158Z,2208.00
2023-06-19T11:53:21.084Z,2221.00
2023-06-19T11:54:21.088Z,2219.00
2023-06-19T11:55:21.091Z,2190.00
2023-06-19T11:56:21.125Z,2195.00
2023-06-19T11:57:21.076Z,2202.00
2023-06-19T11:58:21.059Z,2213.00
2023-06-19T11:59:21.070Z,2219.00
2023-06-19T12:00:21.104Z,2192.00
2023-06-19T12:01:21.058Z,2193.00
2023-06-19T12:02:21.124Z,2167.00
2023-06-19T12:03:21.190Z,2198.00
2023-06-19T12:04:21.218Z,2191.00
2023-06-19T12:05:21.116Z,2184.00